Time;durP1;ratioP1;P1;durP2;ratioP2;P2;SDS_P1;SDS_P2;PMS_P1;PMS_P2;Temp;Humidity;BMP_temperature;BMP_pressure;BME280_temperature;BME280_humidity;BME280_pressure;Samples;Min_cycle;Max_cycle;Signal;HPM_P1;HPM_P2
2021/12/06 00:01:40;;;;;;;4.10;3.90;;;;;;;2.84;100.00;101376.81;4937738;29;20024;-78
2021/12/06 00:04:28;;;;;;;5.28;4.97;;;;;;;2.84;100.00;101389.94;4937867;29;20035;-77
2021/12/06 00:06:59;;;;;;;4.72;4.43;;;;;;;2.84;100.00;101376.81;4937749;29;20035;-78
2021/12/06 00:09:27;;;;;;;3.38;3.17;;;;;;;2.92;100.00;101384.66;4937451;29;20064;-78
2021/12/06 00:11:57;;;;;;;4.10;3.90;;;;;;;2.86;100.00;101392.56;4940168;29;20098;-78
2021/12/06 00:14:29;;;;;;;4.88;4.57;;;;;;;2.90;100.00;101384.69;4956671;29;20027;-78
2021/12/06 00:17:00;;;;;;;3.53;3.35;;;;;;;2.90;100.00;101395.16;4956656;29;20057;-78
2021/12/06 00:19:27;;;;;;;3.35;3.15;;;;;;;2.95;100.00;101401.28;4956479;29;20035;-77
2021/12/06 00:21:53;;;;;;;3.70;3.50;;;;;;;2.88;100.00;101402.16;4956585;29;20122;-77
2021/12/06 00:24:19;;;;;;;3.83;3.63;;;;;;;2.90;100.00;101407.41;4956148;29;20027;-77
2021/12/06 00:26:45;;;;;;;3.92;3.45;;;;;;;2.88;100.00;101407.41;4956296;29;20031;-78
2021/12/06 00:29:10;;;;;;;4.47;4.18;;;;;;;2.98;100.00;101409.13;4956263;29;20023;-77
2021/12/06 00:31:37;;;;;;;3.33;3.13;;;;;;;2.97;100.00;101417.91;4956427;29;20470;-78
2021/12/06 00:34:08;;;;;;;3.33;3.13;;;;;;;2.93;100.00;101423.16;4956538;29;20031;-78
2021/12/06 00:36:38;;;;;;;4.22;4.00;;;;;;;2.93;100.00;101421.38;4956273;29;20091;-78
2021/12/06 00:39:06;;;;;;;3.55;3.35;;;;;;;3.05;100.00;101426.63;4956486;29;20485;-78
2021/12/06 00:41:32;;;;;;;4.07;3.78;;;;;;;3.07;100.00;101419.59;4956289;29;20024;-77
2021/12/06 00:43:58;;;;;;;3.75;3.55;;;;;;;3.06;100.00;101416.97;4956176;29;20031;-77
2021/12/06 00:46:24;;;;;;;4.18;3.97;;;;;;;2.97;100.00;101424.88;4956471;29;20079;-78
2021/12/06 00:48:50;;;;;;;3.97;3.78;;;;;;;2.92;100.00;101424.03;4956235;29;20423;-78
2021/12/06 00:51:15;;;;;;;4.68;4.38;;;;;;;2.86;100.00;101440.66;4956350;29;20026;-77
2021/12/06 00:53:42;;;;;;;4.93;4.63;;;;;;;2.91;100.00;101443.28;4956018;29;20162;-78
2021/12/06 00:56:08;;;;;;;4.30;4.03;;;;;;;2.95;100.00;101440.63;4956433;29;20030;-78
2021/12/06 00:58:33;;;;;;;3.53;3.33;;;;;;;2.95;100.00;101448.50;4956363;28;20027;-78
2021/12/06 01:00:59;;;;;;;4.90;4.60;;;;;;;3.13;100.00;101444.97;4956302;29;20038;-78
2021/12/06 01:03:27;;;;;;;3.55;3.35;;;;;;;2.90;100.00;101442.38;4934725;29;20055;-77
2021/12/06 01:05:53;;;;;;;4.28;4.07;;;;;;;2.80;100.00;101450.28;4955181;29;20554;-78
2021/12/06 01:08:20;;;;;;;3.78;3.58;;;;;;;2.81;100.00;101452.91;4938996;29;20188;-78
2021/12/06 01:10:54;;;;;;;4.55;4.25;;;;;;;2.85;100.00;101459.88;4955907;28;20035;-77
2021/12/06 01:13:20;;;;;;;3.85;3.55;;;;;;;2.79;100.00;101465.13;4955738;28;20074;-77
2021/12/06 01:15:46;;;;;;;3.00;2.80;;;;;;;2.78;100.00;101466.03;4955648;29;20085;-76
2021/12/06 01:18:14;;;;;;;4.40;3.33;;;;;;;2.79;100.00;101472.13;4956557;29;20034;-78
2021/12/06 01:20:49;;;;;;;2.97;2.80;;;;;;;2.78;100.00;101473.91;4956008;29;20027;-78
2021/12/06 01:23:17;;;;;;;3.90;3.70;;;;;;;2.79;100.00;101486.13;4937192;29;20039;-78
2021/12/06 01:25:58;;;;;;;4.15;3.85;;;;;;;2.93;100.00;101494.84;4936713;29;20028;-78
2021/12/06 01:34:10;;;;;;;3.00;2.80;;;;;;;2.92;100.00;101498.38;4936529;29;20046;-78
2021/12/06 01:39:14;;;;;;;3.95;3.65;;;;;;;3.00;100.00;101501.84;4944623;29;20271;-78
2021/12/06 01:41:59;;;;;;;4.35;4.05;;;;;;;3.04;100.00;101493.09;4955809;28;20066;-78
2021/12/06 01:44:26;;;;;;;3.30;3.10;;;;;;;2.99;100.00;101500.09;4956491;28;20034;-78
2021/12/06 01:46:54;;;;;;;3.50;3.30;;;;;;;3.06;100.00;101504.47;4956376;28;20027;-78
2021/12/06 01:49:22;;;;;;;2.92;2.78;;;;;;;3.00;100.00;101511.47;4956154;28;20089;-78
2021/12/06 01:51:49;;;;;;;3.80;3.50;;;;;;;2.99;100.00;101500.09;4955992;28;20023;-78
2021/12/06 01:54:16;;;;;;;3.83;3.63;;;;;;;2.95;100.00;101511.47;4955462;28;20034;-78
2021/12/06 01:56:43;;;;;;;2.65;2.55;;;;;;;2.97;100.00;101517.59;4955577;28;20106;-78
2021/12/06 01:59:09;;;;;;;3.70;3.47;;;;;;;3.02;100.00;101515.84;4955846;28;20030;-78
2021/12/06 02:01:35;;;;;;;3.60;3.40;;;;;;;3.05;100.00;101507.97;4955443;28;20023;-77
2021/12/06 02:04:01;;;;;;;3.75;3.55;;;;;;;3.04;100.00;101508.81;4955944;29;20024;-78
2021/12/06 02:06:27;;;;;;;4.47;4.18;;;;;;;3.01;100.00;101507.94;4955259;28;20035;-77
2021/12/06 02:08:53;;;;;;;3.13;2.92;;;;;;;3.12;100.00;101511.44;4955207;28;20039;-78
2021/12/06 02:11:19;;;;;;;3.08;2.90;;;;;;;3.14;100.00;101497.44;4957038;28;20024;-78
2021/12/06 02:13:55;;;;;;;4.05;3.83;;;;;;;3.10;100.00;101503.56;4958388;28;20114;-78
2021/12/06 02:16:29;;;;;;;3.50;3.22;;;;;;;3.13;100.00;101508.84;4958876;29;20087;-78
2021/12/06 02:19:01;;;;;;;6.00;5.60;;;;;;;3.06;100.00;101501.84;4958896;29;20027;-78
2021/12/06 02:21:32;;;;;;;3.67;3.38;;;;;;;3.08;100.00;101502.72;4958616;29;20110;-77
2021/12/06 02:24:00;;;;;;;2.53;2.38;;;;;;;3.07;100.00;101500.09;4958741;29;20019;-78
2021/12/06 02:26:26;;;;;;;3.67;3.47;;;;;;;3.09;100.00;101493.06;4958687;29;20023;-77
2021/12/06 02:28:52;;;;;;;2.92;2.72;;;;;;;3.05;100.00;101500.09;4958813;29;20114;-78
2021/12/06 02:31:21;;;;;;;2.90;2.70;;;;;;;3.02;100.00;101504.47;4958522;29;20028;-78
2021/12/06 02:33:48;;;;;;;2.97;2.83;;;;;;;2.99;100.00;101497.47;4958326;29;20027;-78
2021/12/06 02:36:16;;;;;;;3.97;3.78;;;;;;;2.96;100.00;101500.09;4958390;29;20037;-77
2021/12/06 02:38:41;;;;;;;3.78;3.45;;;;;;;2.93;100.00;101494.00;4958373;29;20102;-77
2021/12/06 02:41:08;;;;;;;3.30;3.10;;;;;;;2.94;100.00;101494.00;4958256;29;20542;-77
2021/12/06 02:43:35;;;;;;;4.03;3.83;;;;;;;3.00;100.00;101491.34;4958164;29;20538;-78
2021/12/06 02:46:00;;;;;;;3.20;3.00;;;;;;;2.96;100.00;101494.84;4957734;29;20125;-78
2021/12/06 02:48:26;;;;;;;3.17;2.97;;;;;;;2.87;100.00;101489.63;4958907;29;20055;-78
2021/12/06 02:50:54;;;;;;;3.47;3.28;;;;;;;2.87;100.00;101496.59;4958731;29;20040;-78
2021/12/06 02:53:21;;;;;;;3.28;3.08;;;;;;;2.84;100.00;101494.88;4958486;29;20023;-77
2021/12/06 02:55:57;;;;;;;3.28;3.08;;;;;;;2.81;100.00;101497.50;4957871;29;20067;-78
2021/12/06 03:01:07;;;;;;;4.07;3.85;;;;;;;2.93;100.00;101500.09;4955789;29;20045;-78
2021/12/06 03:03:32;;;;;;;3.85;3.65;;;;;;;2.86;100.00;101516.75;4957900;29;20042;-77
2021/12/06 03:05:58;;;;;;;2.85;2.72;;;;;;;2.82;100.00;101507.09;4958159;29;20027;-78
2021/12/06 03:08:41;;;;;;;3.95;3.67;;;;;;;2.80;100.00;101506.25;4957416;29;20027;-78
2021/12/06 03:11:11;;;;;;;3.45;3.25;;;;;;;2.77;100.00;101502.75;4958059;29;20467;-78
2021/12/06 03:13:38;;;;;;;3.20;3.00;;;;;;;2.75;100.00;101502.75;4957819;29;20051;-78
2021/12/06 03:16:04;;;;;;;3.97;3.78;;;;;;;2.73;100.00;101501.88;4957987;29;20023;-78
2021/12/06 03:18:30;;;;;;;5.00;4.70;;;;;;;2.71;100.00;101498.38;4957941;29;20114;-77
2021/12/06 03:20:55;;;;;;;3.22;3.03;;;;;;;2.68;100.00;101508.84;4941248;29;20062;-78
2021/12/06 03:23:21;;;;;;;4.05;3.85;;;;;;;2.71;100.00;101514.09;4956573;28;20045;-76
2021/12/06 03:25:46;;;;;;;2.30;2.20;;;;;;;2.71;100.00;101516.72;4957148;29;20042;-77
2021/12/06 03:28:12;;;;;;;4.75;4.35;;;;;;;2.69;100.00;101520.25;4957481;29;20082;-78
2021/12/06 03:30:38;;;;;;;4.65;4.35;;;;;;;2.72;100.00;101520.22;4957852;29;20023;-78
2021/12/06 03:33:03;;;;;;;3.90;3.60;;;;;;;2.65;100.00;101516.72;4957665;29;20015;-78
2021/12/06 03:35:29;;;;;;;3.13;2.92;;;;;;;2.61;100.00;101515.00;4957065;29;20063;-78
2021/12/06 03:38:09;;;;;;;4.47;4.18;;;;;;;2.53;100.00;101519.38;4957066;29;20023;-78
2021/12/06 03:40:35;;;;;;;4.03;3.83;;;;;;;2.45;100.00;101525.47;4957077;29;20019;-78
2021/12/06 03:43:01;;;;;;;3.20;3.00;;;;;;;2.33;100.00;101512.34;4957360;29;20404;-78
2021/12/06 03:45:26;;;;;;;3.72;3.53;;;;;;;2.24;100.00;101510.56;4956954;29;20051;-78
2021/12/06 03:47:52;;;;;;;3.10;2.90;;;;;;;2.14;100.00;101503.59;4957046;29;20110;-78
2021/12/06 03:50:17;;;;;;;4.57;4.28;;;;;;;2.08;100.00;101514.03;4957473;29;20110;-78
2021/12/06 03:52:43;;;;;;;3.22;3.03;;;;;;;1.97;100.00;101510.50;4956849;29;20479;-78
2021/12/06 03:55:09;;;;;;;5.88;5.47;;;;;;;1.91;100.00;101513.13;4956914;29;20099;-77
2021/12/06 03:57:35;;;;;;;3.40;3.20;;;;;;;1.87;100.00;101516.63;4956737;29;20033;-78
2021/12/06 04:00:01;;;;;;;4.03;3.72;;;;;;;1.84;100.00;101519.22;4957107;29;20027;-78
2021/12/06 04:02:30;;;;;;;4.30;4.05;;;;;;;1.81;100.00;101528.81;4956845;29;20110;-77
2021/12/06 04:04:56;;;;;;;3.05;2.90;;;;;;;1.82;100.00;101541.03;4957132;29;20521;-78
2021/12/06 04:07:22;;;;;;;2.75;2.65;;;;;;;1.78;100.00;101541.88;4956862;29;20035;-78
2021/12/06 04:09:48;;;;;;;4.07;3.78;;;;;;;1.81;100.00;101540.16;4956344;29;20031;-78
2021/12/06 04:12:14;;;;;;;4.72;4.43;;;;;;;1.83;100.00;101546.25;4954951;29;20043;-77
2021/12/06 04:14:41;;;;;;;3.53;3.33;;;;;;;1.74;100.00;101534.88;4937666;29;20071;-78
2021/12/06 04:17:07;;;;;;;3.78;3.58;;;;;;;1.68;100.00;101533.13;4937471;29;20078;-78
2021/12/06 04:19:33;;;;;;;4.20;4.00;;;;;;;1.62;100.00;101532.22;4937362;29;20023;-77
2021/12/06 04:21:58;;;;;;;5.00;4.70;;;;;;;1.62;100.00;101532.22;4937582;29;20087;-78
2021/12/06 04:24:24;;;;;;;5.95;5.55;;;;;;;1.52;100.00;101531.28;4937746;29;20080;-78
2021/12/06 04:26:49;;;;;;;3.78;3.58;;;;;;;1.46;100.00;101542.63;4937143;29;20094;-78
2021/12/06 04:29:16;;;;;;;4.22;3.92;;;;;;;1.42;100.00;101547.81;4937412;29;20028;-78
2021/12/06 04:31:48;;;;;;;5.93;5.60;;;;;;;1.43;100.00;101553.06;4937047;29;20062;-78
2021/12/06 04:34:14;;;;;;;4.70;4.40;;;;;;;1.50;100.00;101553.97;4936867;29;20115;-78
2021/12/06 04:36:43;;;;;;;4.63;4.32;;;;;;;1.58;100.00;101557.50;4936920;29;20114;-77
2021/12/06 04:39:12;;;;;;;4.63;4.22;;;;;;;1.51;100.00;101553.97;4937121;29;20035;-78
2021/12/06 04:41:38;;;;;;;3.97;3.78;;;;;;;1.42;100.00;101550.44;4936739;29;20099;-78
2021/12/06 04:44:03;;;;;;;4.30;4.00;;;;;;;1.35;100.00;101559.13;4937311;29;20106;-78
2021/12/06 04:46:29;;;;;;;5.18;4.88;;;;;;;1.27;100.00;101545.13;4936733;29;20032;-77
2021/12/06 04:48:54;;;;;;;4.15;3.95;;;;;;;1.29;100.00;101543.41;4936974;29;20055;-77
2021/12/06 04:51:20;;;;;;;4.45;4.15;;;;;;;1.31;100.00;101547.75;4936910;29;20023;-77
2021/12/06 04:53:46;;;;;;;5.20;4.90;;;;;;;1.36;100.00;101540.81;4936571;29;20111;-77
2021/12/06 04:56:21;;;;;;;5.65;5.15;;;;;;;1.41;100.00;101539.09;4936488;29;20069;-77
2021/12/06 04:59:15;;;;;;;5.72;5.40;;;;;;;1.61;100.00;101544.41;4935832;29;20023;-78
2021/12/06 05:01:41;;;;;;;4.15;3.95;;;;;;;1.71;100.00;101538.38;4935295;29;20046;-78
2021/12/06 05:04:12;;;;;;;4.75;4.50;;;;;;;1.88;100.00;101526.22;4937228;29;20054;-78
2021/12/06 05:06:41;;;;;;;5.10;4.80;;;;;;;1.98;100.00;101537.59;4936959;29;20126;-78
2021/12/06 05:09:19;;;;;;;4.55;4.35;;;;;;;2.10;100.00;101538.50;4936247;29;20024;-78
2021/12/06 05:11:45;;;;;;;3.85;3.65;;;;;;;2.29;100.00;101542.91;4938039;29;20036;-77
2021/12/06 05:14:11;;;;;;;4.97;4.70;;;;;;;2.36;100.00;101541.19;4938705;29;20035;-78
2021/12/06 05:16:36;;;;;;;4.43;4.13;;;;;;;2.43;100.00;101554.28;4955273;29;20399;-78
2021/12/06 05:19:04;;;;;;;5.57;5.18;;;;;;;2.53;100.00;101549.94;4956080;29;20019;-78
2021/12/06 05:21:34;;;;;;;5.45;5.15;;;;;;;2.56;100.00;101550.81;4955469;29;20114;-78
2021/12/06 05:24:00;;;;;;;4.82;4.53;;;;;;;2.51;100.00;101560.44;4955343;29;20058;-78
2021/12/06 05:26:25;;;;;;;4.65;4.43;;;;;;;2.56;100.00;101561.31;4956007;29;20464;-78
2021/12/06 05:28:55;;;;;;;5.18;4.60;;;;;;;2.57;100.00;101555.19;4955805;29;20106;-78
2021/12/06 05:31:39;;;;;;;3.78;3.58;;;;;;;2.69;100.00;101560.47;4956158;29;20027;-78
2021/12/06 05:34:13;;;;;;;4.70;4.40;;;;;;;2.73;100.00;101558.69;4956181;29;20160;-78
2021/12/06 05:36:50;;;;;;;5.15;4.85;;;;;;;2.74;100.00;101569.19;4956001;29;20027;-79
2021/12/06 05:39:15;;;;;;;4.10;3.90;;;;;;;2.69;100.00;101565.69;4956462;29;20023;-79
2021/12/06 05:41:42;;;;;;;4.40;4.20;;;;;;;2.62;100.00;101569.19;4955897;29;20027;-78
2021/12/06 05:44:10;;;;;;;5.47;5.18;;;;;;;2.59;100.00;101571.81;4955843;29;20043;-78
2021/12/06 05:46:35;;;;;;;6.10;5.55;;;;;;;2.52;100.00;101575.28;4957883;28;20033;-78
2021/12/06 05:49:01;;;;;;;4.80;4.50;;;;;;;2.50;100.00;101581.41;4959670;29;20527;-81
2021/12/06 05:51:26;;;;;;;4.05;3.85;;;;;;;2.58;100.00;101580.56;4959092;29;20028;-79
2021/12/06 05:53:59;;;;;;;4.63;4.32;;;;;;;2.52;100.00;101583.13;4959137;29;20023;-78
2021/12/06 05:56:24;;;;;;;5.90;3.95;;;;;;;2.56;100.00;101574.41;4959227;29;20039;-78
2021/12/06 05:58:59;;;;;;;5.10;4.80;;;;;;;2.56;100.00;101577.03;4959409;29;20034;-78
2021/12/06 06:01:29;;;;;;;3.88;3.58;;;;;;;2.49;100.00;101575.28;4959201;29;20466;-84
2021/12/06 06:03:55;;;;;;;4.72;4.43;;;;;;;2.58;100.00;101580.56;4957855;29;20042;-77
2021/12/06 06:06:20;;;;;;;3.33;3.13;;;;;;;2.53;100.00;101576.16;4959186;29;20028;-78
2021/12/06 06:08:46;;;;;;;4.07;3.78;;;;;;;2.36;100.00;101581.38;4959326;29;20082;-78
2021/12/06 06:11:13;;;;;;;4.05;3.75;;;;;;;2.40;100.00;101579.63;4959352;29;20038;-79
2021/12/06 06:13:39;;;;;;;3.97;3.78;;;;;;;2.38;100.00;101571.75;4945946;29;20063;-83
2021/12/06 06:16:04;;;;;;;4.13;3.92;;;;;;;2.45;100.00;101572.66;4939409;29;20028;-78
2021/12/06 06:18:49;;;;;;;3.85;3.63;;;;;;;2.59;100.00;101578.78;4939659;29;20027;-78
2021/12/06 06:21:26;;;;;;;3.83;3.63;;;;;;;2.83;100.00;101570.94;4940061;29;20103;-79
2021/12/06 06:23:52;;;;;;;3.63;3.42;;;;;;;2.82;100.00;101583.16;4939674;29;20031;-78
2021/12/06 06:26:33;;;;;;;4.00;3.72;;;;;;;2.59;100.00;101581.41;4939459;29;20023;-78
2021/12/06 06:28:58;;;;;;;5.13;4.82;;;;;;;2.58;100.00;101587.53;4939792;29;20420;-78
2021/12/06 06:31:24;;;;;;;3.97;3.78;;;;;;;2.61;100.00;101571.81;4939918;29;20211;-79
2021/12/06 06:37:16;;;;;;;3.63;3.42;;;;;;;2.48;100.00;101588.38;4938751;29;20091;-78
2021/12/06 06:39:53;;;;;;;5.15;4.72;;;;;;;2.47;100.00;101592.75;4939309;29;20024;-79
2021/12/06 06:42:23;;;;;;;4.50;4.20;;;;;;;2.55;100.00;101601.50;4947218;29;20460;-78
2021/12/06 06:44:52;;;;;;;3.95;3.72;;;;;;;2.45;100.00;101602.38;4939345;29;20027;-78
2021/12/06 06:47:33;;;;;;;5.57;5.20;;;;;;;2.44;100.00;101611.09;4939136;29;20045;-78
2021/12/06 06:49:58;;;;;;;5.07;4.65;;;;;;;2.37;100.00;101605.81;4939587;29;20048;-78
2021/12/06 06:52:33;;;;;;;3.30;3.00;;;;;;;2.36;100.00;101615.47;4947236;29;20367;-83
2021/12/06 06:54:59;;;;;;;3.33;3.13;;;;;;;2.42;100.00;101612.84;4939544;29;20028;-78
2021/12/06 06:57:31;;;;;;;5.97;5.57;;;;;;;2.26;100.00;101611.03;4942483;29;20023;-79
2021/12/06 07:00:18;;;;;;;3.55;3.35;;;;;;;2.18;100.00;101609.25;4940546;29;20042;-78
2021/12/06 07:02:44;;;;;;;4.25;4.00;;;;;;;2.21;100.00;101615.38;4942661;29;20023;-78
2021/12/06 07:05:10;;;;;;;6.65;6.15;;;;;;;2.32;100.00;101613.69;4938501;29;20503;-79
2021/12/06 07:07:53;;;;;;;3.78;3.53;;;;;;;2.31;100.00;101611.94;4938015;29;20027;-80
2021/12/06 07:10:18;;;;;;;3.83;3.63;;;;;;;2.26;100.00;101600.56;4954844;29;20383;-80
2021/12/06 07:12:50;;;;;;;4.38;4.10;;;;;;;2.28;100.00;101605.81;4951623;29;20118;-81
2021/12/06 07:15:33;;;;;;;4.63;4.28;;;;;;;2.26;100.00;101604.91;4954233;23;20135;-85
2021/12/06 07:18:01;;;;;;;4.25;3.63;;;;;;;2.23;100.00;101591.81;4919177;29;20345;-78
2021/12/06 07:20:27;;;;;;;4.18;3.97;;;;;;;2.23;100.00;101586.56;4937829;29;20020;-79
2021/12/06 07:22:53;;;;;;;6.07;5.68;;;;;;;2.26;100.00;101590.09;4921355;29;20039;-79
2021/12/06 07:25:21;;;;;;;4.65;4.40;;;;;;;2.25;100.00;101585.72;4919793;29;20055;-78
2021/12/06 07:27:52;;;;;;;4.82;4.57;;;;;;;2.28;100.00;101582.22;4919779;29;20031;-84
2021/12/06 07:30:18;;;;;;;5.40;5.03;;;;;;;2.39;100.00;101589.25;4919819;29;20028;-80
2021/12/06 07:32:46;;;;;;;5.00;4.47;;;;;;;2.39;100.00;101588.38;4919429;29;20028;-79
2021/12/06 07:35:15;;;;;;;5.40;5.10;;;;;;;2.32;100.00;101590.09;4919596;29;20032;-79
2021/12/06 07:37:42;;;;;;;3.72;3.53;;;;;;;2.32;100.00;101577.00;4919242;29;20126;-80
2021/12/06 07:40:10;;;;;;;4.28;4.07;;;;;;;2.39;100.00;101580.50;4944819;23;20138;-81
2021/12/06 07:42:35;;;;;;;3.42;3.25;;;;;;;2.44;100.00;101573.53;4938090;29;20024;-79
2021/12/06 07:45:15;;;;;;;5.45;5.15;;;;;;;2.37;100.00;101580.50;4972663;23;20051;-79
2021/12/06 07:47:43;;;;;;;4.10;3.90;;;;;;;2.49;100.00;101584.91;4955916;29;20090;-84
2021/12/06 07:50:21;;;;;;;5.32;4.93;;;;;;;2.31;100.00;101585.72;4956081;29;20051;-86
2021/12/06 07:52:56;;;;;;;3.72;3.53;;;;;;;2.54;100.00;101591.88;4957024;29;20031;-87
2021/12/06 07:55:39;;;;;;;5.45;5.05;;;;;;;2.36;100.00;101593.59;4956084;29;20042;-92
